sensor_id;sensor_type;location;lat;lon;timestamp;P1;durP1;ratioP1;P2;durP2;ratioP2
29030;SDS011;16122;50.236;11.734;2022-12-08T00:00:47;2.23;;;1.43;;
29030;SDS011;16122;50.236;11.734;2022-12-08T00:03:13;2.00;;;1.80;;
29030;SDS011;16122;50.236;11.734;2022-12-08T00:05:43;1.60;;;1.50;;
29030;SDS011;16122;50.236;11.734;2022-12-08T00:08:31;1.67;;;1.57;;
29030;SDS011;16122;50.236;11.734;2022-12-08T00:11:16;2.40;;;1.37;;
29030;SDS011;16122;50.236;11.734;2022-12-08T00:13:43;2.83;;;1.50;;
29030;SDS011;16122;50.236;11.734;2022-12-08T00:16:10;1.60;;;1.50;;
29030;SDS011;16122;50.236;11.734;2022-12-08T00:18:36;2.20;;;1.50;;
29030;SDS011;16122;50.236;11.734;2022-12-08T00:21:02;4.03;;;1.40;;
29030;SDS011;16122;50.236;11.734;2022-12-08T00:23:31;1.60;;;1.30;;
29030;SDS011;16122;50.236;11.734;2022-12-08T00:26:00;1.63;;;1.53;;
29030;SDS011;16122;50.236;11.734;2022-12-08T00:28:27;1.80;;;1.70;;
29030;SDS011;16122;50.236;11.734;2022-12-08T00:30:53;1.63;;;1.53;;
29030;SDS011;16122;50.236;11.734;2022-12-08T00:33:19;1.40;;;1.30;;
29030;SDS011;16122;50.236;11.734;2022-12-08T00:35:45;2.07;;;1.40;;
29030;SDS011;16122;50.236;11.734;2022-12-08T00:38:10;2.20;;;1.37;;
29030;SDS011;16122;50.236;11.734;2022-12-08T00:40:36;1.90;;;1.23;;
29030;SDS011;16122;50.236;11.734;2022-12-08T00:43:02;1.57;;;1.43;;
29030;SDS011;16122;50.236;11.734;2022-12-08T00:45:28;1.47;;;1.27;;
29030;SDS011;16122;50.236;11.734;2022-12-08T00:47:53;1.60;;;1.50;;
29030;SDS011;16122;50.236;11.734;2022-12-08T00:50:20;2.20;;;1.57;;
29030;SDS011;16122;50.236;11.734;2022-12-08T00:52:45;1.50;;;1.40;;
29030;SDS011;16122;50.236;11.734;2022-12-08T00:55:11;1.97;;;1.40;;
29030;SDS011;16122;50.236;11.734;2022-12-08T00:57:37;1.67;;;1.57;;
29030;SDS011;16122;50.236;11.734;2022-12-08T01:00:03;1.83;;;1.63;;
29030;SDS011;16122;50.236;11.734;2022-12-08T01:02:29;1.33;;;1.23;;
29030;SDS011;16122;50.236;11.734;2022-12-08T01:04:57;1.63;;;1.47;;
29030;SDS011;16122;50.236;11.734;2022-12-08T01:07:23;1.40;;;1.30;;
29030;SDS011;16122;50.236;11.734;2022-12-08T01:09:49;2.07;;;1.53;;
29030;SDS011;16122;50.236;11.734;2022-12-08T01:12:15;1.37;;;1.27;;
29030;SDS011;16122;50.236;11.734;2022-12-08T01:14:40;1.57;;;1.47;;
29030;SDS011;16122;50.236;11.734;2022-12-08T01:17:06;2.67;;;1.50;;
29030;SDS011;16122;50.236;11.734;2022-12-08T01:19:32;1.40;;;1.30;;
29030;SDS011;16122;50.236;11.734;2022-12-08T01:21:58;1.40;;;1.30;;
29030;SDS011;16122;50.236;11.734;2022-12-08T01:24:25;1.40;;;1.30;;
29030;SDS011;16122;50.236;11.734;2022-12-08T01:26:51;1.30;;;1.20;;
29030;SDS011;16122;50.236;11.734;2022-12-08T01:29:17;2.67;;;1.60;;
29030;SDS011;16122;50.236;11.734;2022-12-08T01:31:43;1.80;;;1.70;;
29030;SDS011;16122;50.236;11.734;2022-12-08T01:34:09;1.80;;;1.70;;
29030;SDS011;16122;50.236;11.734;2022-12-08T01:36:35;1.30;;;1.20;;
29030;SDS011;16122;50.236;11.734;2022-12-08T01:39:03;1.93;;;1.40;;
29030;SDS011;16122;50.236;11.734;2022-12-08T01:41:32;1.37;;;1.27;;
29030;SDS011;16122;50.236;11.734;2022-12-08T01:44:03;1.80;;;1.70;;
29030;SDS011;16122;50.236;11.734;2022-12-08T01:46:39;1.10;;;1.00;;
29030;SDS011;16122;50.236;11.734;2022-12-08T01:51:41;1.50;;;1.40;;
29030;SDS011;16122;50.236;11.734;2022-12-08T01:54:14;1.87;;;1.30;;
29030;SDS011;16122;50.236;11.734;2022-12-08T01:56:43;1.50;;;1.20;;
29030;SDS011;16122;50.236;11.734;2022-12-08T01:59:16;1.73;;;1.30;;
29030;SDS011;16122;50.236;11.734;2022-12-08T02:01:48;2.13;;;1.47;;
29030;SDS011;16122;50.236;11.734;2022-12-08T02:04:14;2.40;;;1.43;;
29030;SDS011;16122;50.236;11.734;2022-12-08T02:06:40;1.17;;;1.07;;
29030;SDS011;16122;50.236;11.734;2022-12-08T02:09:09;1.40;;;1.30;;
29030;SDS011;16122;50.236;11.734;2022-12-08T02:11:35;1.33;;;1.23;;
29030;SDS011;16122;50.236;11.734;2022-12-08T02:14:03;1.40;;;1.30;;
29030;SDS011;16122;50.236;11.734;2022-12-08T02:16:34;1.73;;;1.57;;
29030;SDS011;16122;50.236;11.734;2022-12-08T02:22:18;2.70;;;1.40;;
29030;SDS011;16122;50.236;11.734;2022-12-08T02:33:42;1.40;;;1.30;;
29030;SDS011;16122;50.236;11.734;2022-12-08T02:44:19;1.50;;;1.40;;
29030;SDS011;16122;50.236;11.734;2022-12-08T02:46:57;1.60;;;1.20;;
29030;SDS011;16122;50.236;11.734;2022-12-08T02:49:29;1.53;;;1.43;;
29030;SDS011;16122;50.236;11.734;2022-12-08T02:52:03;1.50;;;1.40;;
29030;SDS011;16122;50.236;11.734;2022-12-08T02:54:30;3.37;;;1.80;;
29030;SDS011;16122;50.236;11.734;2022-12-08T03:02:32;1.60;;;1.50;;
29030;SDS011;16122;50.236;11.734;2022-12-08T03:08:11;2.10;;;1.70;;
29030;SDS011;16122;50.236;11.734;2022-12-08T03:10:46;1.60;;;1.50;;
29030;SDS011;16122;50.236;11.734;2022-12-08T03:13:20;1.43;;;1.33;;
29030;SDS011;16122;50.236;11.734;2022-12-08T03:15:49;1.57;;;1.27;;
29030;SDS011;16122;50.236;11.734;2022-12-08T03:18:17;1.60;;;1.30;;
29030;SDS011;16122;50.236;11.734;2022-12-08T03:20:46;1.60;;;1.50;;
29030;SDS011;16122;50.236;11.734;2022-12-08T03:23:14;1.40;;;1.30;;
29030;SDS011;16122;50.236;11.734;2022-12-08T03:25:46;1.47;;;1.30;;
29030;SDS011;16122;50.236;11.734;2022-12-08T03:28:17;2.00;;;1.50;;
29030;SDS011;16122;50.236;11.734;2022-12-08T03:30:44;1.40;;;1.30;;
29030;SDS011;16122;50.236;11.734;2022-12-08T03:33:18;2.23;;;1.50;;
29030;SDS011;16122;50.236;11.734;2022-12-08T03:35:53;1.17;;;1.03;;
29030;SDS011;16122;50.236;11.734;2022-12-08T03:38:19;1.93;;;1.20;;
29030;SDS011;16122;50.236;11.734;2022-12-08T03:40:46;1.67;;;1.57;;
29030;SDS011;16122;50.236;11.734;2022-12-08T03:43:35;1.40;;;1.30;;
29030;SDS011;16122;50.236;11.734;2022-12-08T03:46:01;1.60;;;1.40;;
29030;SDS011;16122;50.236;11.734;2022-12-08T03:48:27;1.70;;;1.60;;
29030;SDS011;16122;50.236;11.734;2022-12-08T03:50:53;1.70;;;1.60;;
29030;SDS011;16122;50.236;11.734;2022-12-08T03:53:19;1.30;;;1.10;;
29030;SDS011;16122;50.236;11.734;2022-12-08T03:55:45;1.57;;;1.40;;
29030;SDS011;16122;50.236;11.734;2022-12-08T03:58:11;1.33;;;1.23;;
29030;SDS011;16122;50.236;11.734;2022-12-08T04:00:37;1.30;;;1.20;;
29030;SDS011;16122;50.236;11.734;2022-12-08T04:03:02;1.60;;;1.50;;
29030;SDS011;16122;50.236;11.734;2022-12-08T04:05:30;1.73;;;1.30;;
29030;SDS011;16122;50.236;11.734;2022-12-08T04:07:56;1.10;;;1.00;;
29030;SDS011;16122;50.236;11.734;2022-12-08T04:10:22;1.40;;;1.30;;
29030;SDS011;16122;50.236;11.734;2022-12-08T04:12:51;1.20;;;1.10;;
29030;SDS011;16122;50.236;11.734;2022-12-08T04:15:17;1.87;;;1.30;;
29030;SDS011;16122;50.236;11.734;2022-12-08T04:17:43;1.20;;;1.10;;
29030;SDS011;16122;50.236;11.734;2022-12-08T04:20:09;1.50;;;1.40;;
29030;SDS011;16122;50.236;11.734;2022-12-08T04:22:35;1.37;;;1.20;;
29030;SDS011;16122;50.236;11.734;2022-12-08T04:25:01;1.40;;;1.30;;
29030;SDS011;16122;50.236;11.734;2022-12-08T04:27:27;1.63;;;1.23;;
29030;SDS011;16122;50.236;11.734;2022-12-08T04:29:53;1.10;;;1.07;;
29030;SDS011;16122;50.236;11.734;2022-12-08T04:32:19;1.33;;;1.23;;
29030;SDS011;16122;50.236;11.734;2022-12-08T04:34:45;1.90;;;1.70;;
29030;SDS011;16122;50.236;11.734;2022-12-08T04:37:10;2.60;;;1.43;;
29030;SDS011;16122;50.236;11.734;2022-12-08T04:39:36;2.17;;;1.90;;
29030;SDS011;16122;50.236;11.734;2022-12-08T04:42:02;1.77;;;1.40;;
29030;SDS011;16122;50.236;11.734;2022-12-08T04:44:28;1.37;;;1.27;;
29030;SDS011;16122;50.236;11.734;2022-12-08T04:46:54;1.30;;;1.20;;
29030;SDS011;16122;50.236;11.734;2022-12-08T04:49:20;1.60;;;1.50;;
29030;SDS011;16122;50.236;11.734;2022-12-08T04:51:46;1.43;;;1.33;;
29030;SDS011;16122;50.236;11.734;2022-12-08T04:54:12;1.30;;;1.20;;
29030;SDS011;16122;50.236;11.734;2022-12-08T04:56:37;1.73;;;1.20;;
29030;SDS011;16122;50.236;11.734;2022-12-08T04:59:03;2.50;;;1.63;;
29030;SDS011;16122;50.236;11.734;2022-12-08T05:01:29;1.40;;;1.30;;
29030;SDS011;16122;50.236;11.734;2022-12-08T05:03:55;2.20;;;2.00;;
29030;SDS011;16122;50.236;11.734;2022-12-08T05:06:21;1.40;;;1.30;;
29030;SDS011;16122;50.236;11.734;2022-12-08T05:08:47;1.73;;;1.40;;
29030;SDS011;16122;50.236;11.734;2022-12-08T05:11:13;1.97;;;1.70;;
29030;SDS011;16122;50.236;11.734;2022-12-08T05:13:38;1.77;;;1.67;;
29030;SDS011;16122;50.236;11.734;2022-12-08T05:16:05;1.67;;;1.33;;
29030;SDS011;16122;50.236;11.734;2022-12-08T05:18:36;1.53;;;1.30;;
29030;SDS011;16122;50.236;11.734;2022-12-08T05:21:02;1.97;;;1.60;;
29030;SDS011;16122;50.236;11.734;2022-12-08T05:23:29;2.43;;;1.50;;
29030;SDS011;16122;50.236;11.734;2022-12-08T05:25:55;1.67;;;1.43;;
29030;SDS011;16122;50.236;11.734;2022-12-08T05:28:21;4.23;;;1.20;;
29030;SDS011;16122;50.236;11.734;2022-12-08T05:30:47;1.57;;;1.47;;
29030;SDS011;16122;50.236;11.734;2022-12-08T05:33:13;2.13;;;1.70;;
29030;SDS011;16122;50.236;11.734;2022-12-08T05:35:39;1.33;;;1.23;;
29030;SDS011;16122;50.236;11.734;2022-12-08T05:38:05;2.23;;;1.40;;
29030;SDS011;16122;50.236;11.734;2022-12-08T05:40:31;1.60;;;1.50;;
29030;SDS011;16122;50.236;11.734;2022-12-08T05:42:57;1.20;;;1.10;;
29030;SDS011;16122;50.236;11.734;2022-12-08T05:45:23;1.20;;;1.10;;
29030;SDS011;16122;50.236;11.734;2022-12-08T05:47:49;1.70;;;1.60;;
29030;SDS011;16122;50.236;11.734;2022-12-08T05:50:16;3.23;;;1.50;;
29030;SDS011;16122;50.236;11.734;2022-12-08T05:52:42;1.43;;;1.33;;
29030;SDS011;16122;50.236;11.734;2022-12-08T05:55:08;2.63;;;1.90;;
29030;SDS011;16122;50.236;11.734;2022-12-08T05:57:34;5.43;;;2.17;;
29030;SDS011;16122;50.236;11.734;2022-12-08T06:00:00;2.93;;;2.07;;
29030;SDS011;16122;50.236;11.734;2022-12-08T06:02:26;1.40;;;1.30;;
29030;SDS011;16122;50.236;11.734;2022-12-08T06:04:53;1.60;;;1.50;;
29030;SDS011;16122;50.236;11.734;2022-12-08T06:07:18;1.50;;;1.40;;
29030;SDS011;16122;50.236;11.734;2022-12-08T06:09:44;1.70;;;1.30;;
29030;SDS011;16122;50.236;11.734;2022-12-08T06:12:10;1.73;;;1.63;;
29030;SDS011;16122;50.236;11.734;2022-12-08T06:14:37;2.10;;;1.40;;
29030;SDS011;16122;50.236;11.734;2022-12-08T06:17:03;3.43;;;1.73;;
29030;SDS011;16122;50.236;11.734;2022-12-08T06:19:30;6.73;;;2.10;;
29030;SDS011;16122;50.236;11.734;2022-12-08T06:21:55;1.77;;;1.60;;
29030;SDS011;16122;50.236;11.734;2022-12-08T06:24:21;2.27;;;1.70;;
29030;SDS011;16122;50.236;11.734;2022-12-08T06:26:47;2.30;;;1.70;;
29030;SDS011;16122;50.236;11.734;2022-12-08T06:29:13;1.90;;;1.70;;
29030;SDS011;16122;50.236;11.734;2022-12-08T06:31:39;1.67;;;1.57;;
29030;SDS011;16122;50.236;11.734;2022-12-08T06:34:05;1.73;;;1.63;;
29030;SDS011;16122;50.236;11.734;2022-12-08T06:36:31;1.43;;;1.30;;
29030;SDS011;16122;50.236;11.734;2022-12-08T06:38:57;1.43;;;1.33;;
29030;SDS011;16122;50.236;11.734;2022-12-08T06:41:23;1.70;;;1.60;;
29030;SDS011;16122;50.236;11.734;2022-12-08T06:43:49;1.80;;;1.70;;
29030;SDS011;16122;50.236;11.734;2022-12-08T06:46:16;2.50;;;1.63;;
29030;SDS011;16122;50.236;11.734;2022-12-08T06:48:43;2.27;;;1.80;;
29030;SDS011;16122;50.236;11.734;2022-12-08T06:51:11;1.90;;;1.57;;
29030;SDS011;16122;50.236;11.734;2022-12-08T06:53:39;1.50;;;1.40;;
29030;SDS011;16122;50.236;11.734;2022-12-08T06:56:06;1.47;;;1.37;;
29030;SDS011;16122;50.236;11.734;2022-12-08T06:58:33;2.17;;;1.97;;
29030;SDS011;16122;50.236;11.734;2022-12-08T07:01:06;1.73;;;1.60;;
29030;SDS011;16122;50.236;11.734;2022-12-08T07:03:33;1.73;;;1.63;;
29030;SDS011;16122;50.236;11.734;2022-12-08T07:06:00;1.60;;;1.50;;
29030;SDS011;16122;50.236;11.734;2022-12-08T07:08:26;1.67;;;1.57;;
29030;SDS011;16122;50.236;11.734;2022-12-08T07:10:52;1.70;;;1.60;;
29030;SDS011;16122;50.236;11.734;2022-12-08T07:13:17;4.60;;;1.70;;
29030;SDS011;16122;50.236;11.734;2022-12-08T07:15:43;1.57;;;1.43;;
29030;SDS011;16122;50.236;11.734;2022-12-08T07:18:09;1.53;;;1.43;;
29030;SDS011;16122;50.236;11.734;2022-12-08T07:20:35;2.70;;;1.90;;
29030;SDS011;16122;50.236;11.734;2022-12-08T07:23:01;4.67;;;1.40;;
29030;SDS011;16122;50.236;11.734;2022-12-08T07:25:27;1.97;;;1.73;;
29030;SDS011;16122;50.236;11.734;2022-12-08T07:27:53;1.67;;;1.57;;
29030;SDS011;16122;50.236;11.734;2022-12-08T07:30:19;1.40;;;1.30;;
29030;SDS011;16122;50.236;11.734;2022-12-08T07:32:45;1.47;;;1.37;;
29030;SDS011;16122;50.236;11.734;2022-12-08T07:35:10;1.50;;;1.40;;
29030;SDS011;16122;50.236;11.734;2022-12-08T07:37:36;3.93;;;1.70;;
29030;SDS011;16122;50.236;11.734;2022-12-08T07:40:06;2.40;;;2.20;;
29030;SDS011;16122;50.236;11.734;2022-12-08T07:42:34;5.30;;;1.73;;
29030;SDS011;16122;50.236;11.734;2022-12-08T07:45:00;1.83;;;1.60;;
29030;SDS011;16122;50.236;11.734;2022-12-08T07:47:27;1.93;;;1.80;;
29030;SDS011;16122;50.236;11.734;2022-12-08T07:49:53;1.87;;;1.60;;
29030;SDS011;16122;50.236;11.734;2022-12-08T07:52:19;1.73;;;1.63;;
29030;SDS011;16122;50.236;11.734;2022-12-08T07:54:44;2.27;;;1.80;;
29030;SDS011;16122;50.236;11.734;2022-12-08T07:57:11;2.10;;;1.90;;
29030;SDS011;16122;50.236;11.734;2022-12-08T07:59:37;1.73;;;1.63;;
29030;SDS011;16122;50.236;11.734;2022-12-08T08:02:03;1.63;;;1.53;;
29030;SDS011;16122;50.236;11.734;2022-12-08T08:04:29;2.03;;;1.57;;
29030;SDS011;16122;50.236;11.734;2022-12-08T08:06:55;1.80;;;1.70;;
29030;SDS011;16122;50.236;11.734;2022-12-08T08:09:20;2.00;;;1.90;;
29030;SDS011;16122;50.236;11.734;2022-12-08T08:11:46;2.30;;;2.10;;
29030;SDS011;16122;50.236;11.734;2022-12-08T08:14:12;1.80;;;1.63;;
29030;SDS011;16122;50.236;11.734;2022-12-08T08:16:38;2.00;;;1.80;;
29030;SDS011;16122;50.236;11.734;2022-12-08T08:19:10;2.10;;;1.80;;
29030;SDS011;16122;50.236;11.734;2022-12-08T08:21:36;2.43;;;2.03;;
29030;SDS011;16122;50.236;11.734;2022-12-08T08:24:01;1.97;;;1.77;;
29030;SDS011;16122;50.236;11.734;2022-12-08T08:26:28;5.43;;;2.20;;
29030;SDS011;16122;50.236;11.734;2022-12-08T08:28:54;1.87;;;1.77;;
29030;SDS011;16122;50.236;11.734;2022-12-08T08:31:23;2.17;;;1.73;;
29030;SDS011;16122;50.236;11.734;2022-12-08T08:33:49;2.07;;;1.90;;
29030;SDS011;16122;50.236;11.734;2022-12-08T08:36:15;3.00;;;1.80;;
29030;SDS011;16122;50.236;11.734;2022-12-08T08:38:41;2.70;;;1.90;;
29030;SDS011;16122;50.236;11.734;2022-12-08T08:41:09;2.40;;;2.20;;
29030;SDS011;16122;50.236;11.734;2022-12-08T08:43:35;2.07;;;1.87;;
29030;SDS011;16122;50.236;11.734;2022-12-08T08:46:01;2.40;;;1.90;;
29030;SDS011;16122;50.236;11.734;2022-12-08T08:48:29;2.10;;;1.90;;
29030;SDS011;16122;50.236;11.734;2022-12-08T08:50:56;2.80;;;2.07;;
29030;SDS011;16122;50.236;11.734;2022-12-08T08:53:23;1.60;;;1.50;;
29030;SDS011;16122;50.236;11.734;2022-12-08T08:55:49;2.30;;;1.93;;
29030;SDS011;16122;50.236;11.734;2022-12-08T08:58:16;2.20;;;2.00;;
29030;SDS011;16122;50.236;11.734;2022-12-08T09:00:42;1.83;;;1.73;;
29030;SDS011;16122;50.236;11.734;2022-12-08T09:03:08;2.57;;;2.37;;
29030;SDS011;16122;50.236;11.734;2022-12-08T09:05:36;1.97;;;1.87;;
29030;SDS011;16122;50.236;11.734;2022-12-08T09:08:03;2.03;;;1.93;;
29030;SDS011;16122;50.236;11.734;2022-12-08T09:10:29;1.90;;;1.80;;
29030;SDS011;16122;50.236;11.734;2022-12-08T09:12:55;2.27;;;1.90;;
29030;SDS011;16122;50.236;11.734;2022-12-08T09:15:21;1.80;;;1.70;;
29030;SDS011;16122;50.236;11.734;2022-12-08T09:17:47;2.00;;;1.90;;
29030;SDS011;16122;50.236;11.734;2022-12-08T09:20:12;1.70;;;1.60;;
29030;SDS011;16122;50.236;11.734;2022-12-08T09:22:39;2.57;;;2.27;;
29030;SDS011;16122;50.236;11.734;2022-12-08T09:25:05;2.33;;;2.13;;
29030;SDS011;16122;50.236;11.734;2022-12-08T09:27:32;1.93;;;1.83;;
29030;SDS011;16122;50.236;11.734;2022-12-08T09:29:58;2.60;;;2.40;;
29030;SDS011;16122;50.236;11.734;2022-12-08T09:32:24;1.80;;;1.70;;
29030;SDS011;16122;50.236;11.734;2022-12-08T09:34:49;2.97;;;2.27;;
29030;SDS011;16122;50.236;11.734;2022-12-08T09:37:16;2.17;;;1.97;;
29030;SDS011;16122;50.236;11.734;2022-12-08T09:39:41;3.03;;;2.20;;
29030;SDS011;16122;50.236;11.734;2022-12-08T09:42:08;2.53;;;2.33;;
29030;SDS011;16122;50.236;11.734;2022-12-08T09:49:52;2.00;;;1.90;;
29030;SDS011;16122;50.236;11.734;2022-12-08T09:52:31;2.23;;;1.90;;
29030;SDS011;16122;50.236;11.734;2022-12-08T09:55:02;3.20;;;2.07;;
29030;SDS011;16122;50.236;11.734;2022-12-08T09:57:35;3.10;;;2.33;;
29030;SDS011;16122;50.236;11.734;2022-12-08T10:00:03;2.10;;;2.00;;
29030;SDS011;16122;50.236;11.734;2022-12-08T10:02:30;1.90;;;1.80;;
29030;SDS011;16122;50.236;11.734;2022-12-08T10:04:56;2.80;;;1.93;;
29030;SDS011;16122;50.236;11.734;2022-12-08T10:07:35;2.40;;;2.20;;
29030;SDS011;16122;50.236;11.734;2022-12-08T10:18:30;2.00;;;1.90;;
29030;SDS011;16122;50.236;11.734;2022-12-08T10:20:59;2.40;;;2.20;;
29030;SDS011;16122;50.236;11.734;2022-12-08T10:23:42;2.10;;;2.00;;
29030;SDS011;16122;50.236;11.734;2022-12-08T10:26:13;1.90;;;1.80;;
29030;SDS011;16122;50.236;11.734;2022-12-08T10:28:41;2.00;;;1.90;;
29030;SDS011;16122;50.236;11.734;2022-12-08T10:31:19;2.27;;;2.10;;
29030;SDS011;16122;50.236;11.734;2022-12-08T10:33:47;4.60;;;2.33;;
29030;SDS011;16122;50.236;11.734;2022-12-08T10:37:25;2.30;;;2.17;;
29030;SDS011;16122;50.236;11.734;2022-12-08T10:44:57;1.93;;;1.70;;
29030;SDS011;16122;50.236;11.734;2022-12-08T10:47:26;2.27;;;2.07;;
29030;SDS011;16122;50.236;11.734;2022-12-08T10:50:07;1.63;;;1.53;;
29030;SDS011;16122;50.236;11.734;2022-12-08T10:52:44;2.00;;;1.90;;
29030;SDS011;16122;50.236;11.734;2022-12-08T10:57:44;2.13;;;1.70;;
29030;SDS011;16122;50.236;11.734;2022-12-08T11:00:24;1.77;;;1.67;;
29030;SDS011;16122;50.236;11.734;2022-12-08T11:02:56;1.70;;;1.60;;
29030;SDS011;16122;50.236;11.734;2022-12-08T11:05:25;1.80;;;1.70;;
29030;SDS011;16122;50.236;11.734;2022-12-08T11:07:53;2.27;;;1.90;;
29030;SDS011;16122;50.236;11.734;2022-12-08T11:10:24;2.90;;;2.33;;
29030;SDS011;16122;50.236;11.734;2022-12-08T11:12:58;1.83;;;1.60;;
29030;SDS011;16122;50.236;11.734;2022-12-08T11:15:45;1.77;;;1.67;;
29030;SDS011;16122;50.236;11.734;2022-12-08T11:18:27;1.73;;;1.63;;
29030;SDS011;16122;50.236;11.734;2022-12-08T11:21:06;1.97;;;1.77;;
29030;SDS011;16122;50.236;11.734;2022-12-08T11:23:38;2.37;;;2.10;;
29030;SDS011;16122;50.236;11.734;2022-12-08T11:26:18;1.73;;;1.63;;
29030;SDS011;16122;50.236;11.734;2022-12-08T11:28:52;2.03;;;1.83;;
29030;SDS011;16122;50.236;11.734;2022-12-08T11:31:29;1.60;;;1.50;;
29030;SDS011;16122;50.236;11.734;2022-12-08T11:33:58;1.90;;;1.80;;
29030;SDS011;16122;50.236;11.734;2022-12-08T11:36:27;2.00;;;1.90;;
29030;SDS011;16122;50.236;11.734;2022-12-08T11:38:58;1.70;;;1.60;;
29030;SDS011;16122;50.236;11.734;2022-12-08T11:41:32;2.47;;;1.90;;
29030;SDS011;16122;50.236;11.734;2022-12-08T11:46:39;15.73;;;2.30;;
29030;SDS011;16122;50.236;11.734;2022-12-08T11:49:45;1.70;;;1.60;;
29030;SDS011;16122;50.236;11.734;2022-12-08T11:52:23;2.10;;;1.90;;
29030;SDS011;16122;50.236;11.734;2022-12-08T11:55:02;2.00;;;1.80;;
29030;SDS011;16122;50.236;11.734;2022-12-08T11:57:43;1.97;;;1.67;;
29030;SDS011;16122;50.236;11.734;2022-12-08T12:00:11;2.10;;;1.90;;
29030;SDS011;16122;50.236;11.734;2022-12-08T12:02:40;2.63;;;2.20;;
29030;SDS011;16122;50.236;11.734;2022-12-08T12:05:45;2.70;;;2.10;;
29030;SDS011;16122;50.236;11.734;2022-12-08T12:10:44;2.40;;;2.20;;
29030;SDS011;16122;50.236;11.734;2022-12-08T12:18:46;2.83;;;1.83;;
29030;SDS011;16122;50.236;11.734;2022-12-08T12:26:26;2.03;;;1.93;;
29030;SDS011;16122;50.236;11.734;2022-12-08T12:28:55;2.10;;;1.90;;
29030;SDS011;16122;50.236;11.734;2022-12-08T12:31:35;3.20;;;2.43;;
29030;SDS011;16122;50.236;11.734;2022-12-08T12:36:48;2.30;;;2.10;;
29030;SDS011;16122;50.236;11.734;2022-12-08T12:39:22;2.80;;;2.00;;
29030;SDS011;16122;50.236;11.734;2022-12-08T12:41:53;2.33;;;2.13;;
29030;SDS011;16122;50.236;11.734;2022-12-08T12:47:01;2.70;;;2.30;;
29030;SDS011;16122;50.236;11.734;2022-12-08T13:02:39;1.80;;;1.70;;
29030;SDS011;16122;50.236;11.734;2022-12-08T13:07:54;2.20;;;2.10;;
29030;SDS011;16122;50.236;11.734;2022-12-08T13:10:36;2.53;;;2.33;;
29030;SDS011;16122;50.236;11.734;2022-12-08T13:15:46;2.27;;;2.17;;
29030;SDS011;16122;50.236;11.734;2022-12-08T13:18:24;2.37;;;2.20;;
29030;SDS011;16122;50.236;11.734;2022-12-08T13:34:03;2.40;;;2.10;;
29030;SDS011;16122;50.236;11.734;2022-12-08T13:36:38;2.20;;;2.00;;
29030;SDS011;16122;50.236;11.734;2022-12-08T13:39:11;2.87;;;2.30;;
29030;SDS011;16122;50.236;11.734;2022-12-08T13:42:01;3.03;;;2.40;;
29030;SDS011;16122;50.236;11.734;2022-12-08T13:44:34;2.30;;;2.13;;
29030;SDS011;16122;50.236;11.734;2022-12-08T13:47:11;2.53;;;2.33;;
29030;SDS011;16122;50.236;11.734;2022-12-08T13:49:45;1.93;;;1.83;;
29030;SDS011;16122;50.236;11.734;2022-12-08T13:52:29;2.33;;;2.13;;
29030;SDS011;16122;50.236;11.734;2022-12-08T13:55:14;2.00;;;1.90;;
29030;SDS011;16122;50.236;11.734;2022-12-08T13:57:50;2.10;;;2.00;;
29030;SDS011;16122;50.236;11.734;2022-12-08T14:00:19;2.37;;;2.03;;
29030;SDS011;16122;50.236;11.734;2022-12-08T14:02:47;1.90;;;1.80;;
29030;SDS011;16122;50.236;11.734;2022-12-08T14:05:16;1.90;;;1.70;;
29030;SDS011;16122;50.236;11.734;2022-12-08T14:07:43;2.40;;;2.20;;
29030;SDS011;16122;50.236;11.734;2022-12-08T14:10:29;2.20;;;2.10;;
29030;SDS011;16122;50.236;11.734;2022-12-08T14:13:05;2.60;;;2.17;;
29030;SDS011;16122;50.236;11.734;2022-12-08T14:15:37;2.10;;;1.80;;
29030;SDS011;16122;50.236;11.734;2022-12-08T14:18:04;2.20;;;2.00;;
29030;SDS011;16122;50.236;11.734;2022-12-08T14:20:32;2.80;;;2.30;;
29030;SDS011;16122;50.236;11.734;2022-12-08T14:22:59;2.70;;;2.30;;
29030;SDS011;16122;50.236;11.734;2022-12-08T14:25:31;2.50;;;2.30;;
29030;SDS011;16122;50.236;11.734;2022-12-08T14:28:00;3.07;;;2.13;;
29030;SDS011;16122;50.236;11.734;2022-12-08T14:30:31;2.40;;;2.20;;
29030;SDS011;16122;50.236;11.734;2022-12-08T14:32:59;2.37;;;2.17;;
29030;SDS011;16122;50.236;11.734;2022-12-08T14:35:28;2.43;;;2.23;;
29030;SDS011;16122;50.236;11.734;2022-12-08T14:38:00;2.27;;;2.07;;
29030;SDS011;16122;50.236;11.734;2022-12-08T14:40:34;2.23;;;2.03;;
29030;SDS011;16122;50.236;11.734;2022-12-08T14:53:34;2.27;;;2.07;;
29030;SDS011;16122;50.236;11.734;2022-12-08T15:01:45;2.57;;;2.37;;
29030;SDS011;16122;50.236;11.734;2022-12-08T15:04:14;3.00;;;2.67;;
29030;SDS011;16122;50.236;11.734;2022-12-08T15:09:35;3.30;;;2.20;;
29030;SDS011;16122;50.236;11.734;2022-12-08T15:14:37;2.53;;;2.37;;
29030;SDS011;16122;50.236;11.734;2022-12-08T15:19:56;1.93;;;1.80;;
29030;SDS011;16122;50.236;11.734;2022-12-08T15:22:23;3.33;;;2.10;;
29030;SDS011;16122;50.236;11.734;2022-12-08T15:24:51;1.80;;;1.70;;
29030;SDS011;16122;50.236;11.734;2022-12-08T15:27:18;2.50;;;2.30;;
29030;SDS011;16122;50.236;11.734;2022-12-08T15:29:46;2.30;;;2.10;;
29030;SDS011;16122;50.236;11.734;2022-12-08T15:32:12;2.27;;;1.93;;
29030;SDS011;16122;50.236;11.734;2022-12-08T15:34:42;2.30;;;2.10;;
29030;SDS011;16122;50.236;11.734;2022-12-08T15:37:15;2.30;;;2.10;;
29030;SDS011;16122;50.236;11.734;2022-12-08T15:39:43;2.07;;;1.97;;
29030;SDS011;16122;50.236;11.734;2022-12-08T15:42:10;2.40;;;2.00;;
29030;SDS011;16122;50.236;11.734;2022-12-08T15:44:37;2.43;;;2.20;;
29030;SDS011;16122;50.236;11.734;2022-12-08T15:47:03;2.53;;;2.33;;
29030;SDS011;16122;50.236;11.734;2022-12-08T15:49:30;2.70;;;2.30;;
29030;SDS011;16122;50.236;11.734;2022-12-08T15:51:56;2.40;;;2.30;;
29030;SDS011;16122;50.236;11.734;2022-12-08T15:54:22;2.10;;;1.90;;
29030;SDS011;16122;50.236;11.734;2022-12-08T15:56:49;2.87;;;2.67;;
29030;SDS011;16122;50.236;11.734;2022-12-08T15:59:19;3.07;;;2.80;;
29030;SDS011;16122;50.236;11.734;2022-12-08T16:01:47;3.77;;;2.60;;
29030;SDS011;16122;50.236;11.734;2022-12-08T16:04:14;2.70;;;2.50;;
29030;SDS011;16122;50.236;11.734;2022-12-08T16:06:42;3.07;;;2.80;;
29030;SDS011;16122;50.236;11.734;2022-12-08T16:09:25;3.10;;;2.40;;
29030;SDS011;16122;50.236;11.734;2022-12-08T16:11:52;3.90;;;2.50;;
29030;SDS011;16122;50.236;11.734;2022-12-08T16:14:37;2.70;;;2.50;;
29030;SDS011;16122;50.236;11.734;2022-12-08T16:17:05;2.50;;;2.30;;
29030;SDS011;16122;50.236;11.734;2022-12-08T16:19:36;2.90;;;2.60;;
29030;SDS011;16122;50.236;11.734;2022-12-08T16:22:02;2.40;;;2.20;;
29030;SDS011;16122;50.236;11.734;2022-12-08T16:24:28;2.50;;;2.30;;
29030;SDS011;16122;50.236;11.734;2022-12-08T16:26:54;2.80;;;2.50;;
29030;SDS011;16122;50.236;11.734;2022-12-08T16:29:20;2.80;;;2.53;;
29030;SDS011;16122;50.236;11.734;2022-12-08T16:31:46;2.73;;;2.53;;
29030;SDS011;16122;50.236;11.734;2022-12-08T16:34:13;2.43;;;2.23;;
29030;SDS011;16122;50.236;11.734;2022-12-08T16:36:39;2.53;;;2.33;;
29030;SDS011;16122;50.236;11.734;2022-12-08T16:39:05;2.40;;;2.20;;
29030;SDS011;16122;50.236;11.734;2022-12-08T16:41:31;2.40;;;2.20;;
29030;SDS011;16122;50.236;11.734;2022-12-08T16:44:16;3.50;;;2.83;;
29030;SDS011;16122;50.236;11.734;2022-12-08T16:46:41;2.73;;;2.53;;
29030;SDS011;16122;50.236;11.734;2022-12-08T16:49:07;2.20;;;2.10;;
29030;SDS011;16122;50.236;11.734;2022-12-08T16:51:33;2.90;;;2.27;;
29030;SDS011;16122;50.236;11.734;2022-12-08T16:54:00;2.77;;;2.57;;